createdAt,value
2022-07-31T00:00:12.491Z,100.00
2022-07-31T00:02:39.391Z,100.00
2022-07-31T00:05:06.539Z,100.00
2022-07-31T00:07:33.775Z,100.00
2022-07-31T00:10:00.460Z,100.00
2022-07-31T00:12:27.134Z,100.00
2022-07-31T00:14:53.854Z,100.00
2022-07-31T00:17:20.708Z,100.00
2022-07-31T00:19:47.379Z,100.00
2022-07-31T00:22:14.153Z,100.00
2022-07-31T00:24:40.823Z,100.00
2022-07-31T00:27:07.840Z,100.00
2022-07-31T00:29:34.510Z,100.00
2022-07-31T00:32:01.232Z,100.00
2022-07-31T00:34:28.073Z,100.00
2022-07-31T00:36:54.743Z,100.00
2022-07-31T00:39:21.422Z,100.00
2022-07-31T00:41:49.479Z,100.00
2022-07-31T00:44:16.201Z,100.00
2022-07-31T00:46:45.162Z,100.00
2022-07-31T00:49:12.028Z,100.00
2022-07-31T00:51:40.240Z,100.00
2022-07-31T00:54:08.363Z,100.00
2022-07-31T00:56:35.776Z,100.00
2022-07-31T00:59:03.685Z,100.00
2022-07-31T01:01:30.931Z,100.00
2022-07-31T01:03:58.084Z,100.00
2022-07-31T01:06:24.720Z,100.00
2022-07-31T01:08:51.379Z,100.00
2022-07-31T01:11:33.043Z,100.00
2022-07-31T01:14:02.828Z,100.00
2022-07-31T01:16:39.113Z,100.00
2022-07-31T01:19:15.399Z,100.00
2022-07-31T01:22:33.024Z,100.00
2022-07-31T01:25:00.916Z,100.00
2022-07-31T01:27:52.459Z,100.00
2022-07-31T01:30:25.585Z,100.00
2022-07-31T01:32:57.850Z,100.00
2022-07-31T01:35:32.595Z,100.00
2022-07-31T01:38:12.941Z,100.00
2022-07-31T01:40:49.064Z,100.00
2022-07-31T01:43:22.187Z,100.00
2022-07-31T01:45:53.210Z,100.00
2022-07-31T01:48:20.795Z,100.00
2022-07-31T01:50:49.515Z,100.00
2022-07-31T01:53:21.297Z,100.00
2022-07-31T01:56:03.037Z,100.00
2022-07-31T01:58:37.928Z,100.00
2022-07-31T02:01:11.790Z,100.00
2022-07-31T02:03:42.703Z,100.00
2022-07-31T02:06:11.876Z,100.00
2022-07-31T02:08:38.955Z,100.00
2022-07-31T02:11:06.016Z,100.00
2022-07-31T02:13:37.243Z,100.00
2022-07-31T02:16:05.662Z,100.00
2022-07-31T02:18:35.517Z,100.00
2022-07-31T02:21:15.009Z,100.00
2022-07-31T02:23:41.873Z,100.00
2022-07-31T02:26:09.043Z,100.00
2022-07-31T02:28:38.168Z,100.00
2022-07-31T02:31:10.210Z,100.00
2022-07-31T02:33:38.416Z,100.00
2022-07-31T02:36:06.566Z,100.00
2022-07-31T02:38:35.350Z,100.00
2022-07-31T02:41:05.015Z,100.00
2022-07-31T02:43:34.797Z,100.00
2022-07-31T02:46:12.461Z,100.00
2022-07-31T02:48:40.094Z,100.00
2022-07-31T02:51:09.623Z,100.00
2022-07-31T02:53:40.072Z,100.00
2022-07-31T02:56:10.013Z,100.00
2022-07-31T02:58:41.906Z,100.00
2022-07-31T03:01:14.331Z,100.00
2022-07-31T03:03:42.183Z,100.00
2022-07-31T03:06:10.840Z,100.00
2022-07-31T03:08:38.451Z,100.00
2022-07-31T03:11:06.211Z,100.00
2022-07-31T03:13:36.608Z,100.00
2022-07-31T03:16:07.265Z,100.00
2022-07-31T03:18:35.112Z,100.00
2022-07-31T03:21:01.892Z,100.00
2022-07-31T03:23:36.251Z,100.00
2022-07-31T03:26:10.677Z,100.00
2022-07-31T03:28:38.156Z,100.00
2022-07-31T03:31:04.884Z,100.00
2022-07-31T03:33:31.737Z,100.00
2022-07-31T03:35:59.014Z,100.00
2022-07-31T03:38:39.199Z,100.00
2022-07-31T03:41:10.946Z,100.00
2022-07-31T03:43:44.458Z,100.00
2022-07-31T03:46:17.064Z,100.00
2022-07-31T03:48:44.957Z,100.00
2022-07-31T03:51:13.237Z,100.00
2022-07-31T03:53:41.320Z,100.00
2022-07-31T03:56:09.968Z,100.00
2022-07-31T03:58:38.549Z,100.00
2022-07-31T04:01:10.594Z,100.00
2022-07-31T04:03:39.495Z,100.00
2022-07-31T04:06:32.162Z,100.00
2022-07-31T04:09:01.472Z,100.00
2022-07-31T04:11:46.706Z,100.00
2022-07-31T04:14:13.473Z,100.00
2022-07-31T04:16:40.179Z,100.00
2022-07-31T04:19:07.374Z,100.00
2022-07-31T04:21:34.114Z,100.00
2022-07-31T04:24:04.824Z,100.00
2022-07-31T04:26:50.560Z,100.00
2022-07-31T04:29:18.378Z,100.00
2022-07-31T04:31:45.667Z,100.00
2022-07-31T04:34:16.055Z,100.00
2022-07-31T04:36:43.720Z,100.00
2022-07-31T04:39:10.572Z,100.00
2022-07-31T04:41:37.291Z,100.00
2022-07-31T04:44:04.097Z,100.00
2022-07-31T04:46:45.551Z,100.00
2022-07-31T04:49:14.975Z,100.00
2022-07-31T04:51:42.717Z,100.00
2022-07-31T04:54:10.761Z,100.00
2022-07-31T04:56:41.752Z,100.00
2022-07-31T04:59:11.720Z,100.00
2022-07-31T05:01:42.219Z,100.00
2022-07-31T05:04:10.707Z,100.00
2022-07-31T05:06:39.724Z,100.00
2022-07-31T05:09:12.569Z,100.00
2022-07-31T05:11:45.967Z,100.00
2022-07-31T05:14:14.011Z,100.00
2022-07-31T05:16:40.878Z,100.00
2022-07-31T05:19:14.877Z,100.00
2022-07-31T05:22:17.046Z,100.00
2022-07-31T05:25:03.036Z,100.00
2022-07-31T05:27:32.131Z,100.00
2022-07-31T05:29:59.035Z,100.00
2022-07-31T05:32:25.795Z,100.00
2022-07-31T05:34:53.120Z,100.00
2022-07-31T05:37:20.216Z,100.00
2022-07-31T05:39:47.006Z,100.00
2022-07-31T05:42:32.009Z,100.00
2022-07-31T05:45:17.193Z,100.00
2022-07-31T05:47:43.853Z,100.00
2022-07-31T05:50:10.669Z,100.00
2022-07-31T05:52:37.985Z,100.00
2022-07-31T05:55:39.897Z,100.00
2022-07-31T05:58:19.847Z,100.00
2022-07-31T06:00:48.837Z,100.00
2022-07-31T06:03:16.502Z,100.00
2022-07-31T06:05:56.713Z,100.00
2022-07-31T06:08:23.500Z,100.00
2022-07-31T06:10:51.578Z,100.00
2022-07-31T06:13:19.397Z,100.00
2022-07-31T06:15:49.422Z,100.00
2022-07-31T06:18:16.563Z,100.00
2022-07-31T06:20:43.294Z,100.00
2022-07-31T06:23:22.488Z,100.00
2022-07-31T06:25:53.139Z,100.00
2022-07-31T06:28:20.337Z,100.00
2022-07-31T06:30:55.734Z,100.00
2022-07-31T06:33:37.525Z,100.00
2022-07-31T06:36:04.746Z,100.00
2022-07-31T06:38:38.261Z,100.00
2022-07-31T06:41:49.558Z,100.00
2022-07-31T06:44:29.629Z,100.00
2022-07-31T06:47:16.494Z,100.00
2022-07-31T06:49:55.511Z,100.00
2022-07-31T06:52:26.116Z,100.00
2022-07-31T06:54:53.612Z,100.00
2022-07-31T06:57:29.434Z,100.00
2022-07-31T06:59:56.253Z,100.00
2022-07-31T07:02:23.924Z,100.00
2022-07-31T07:05:06.200Z,100.00
2022-07-31T07:07:35.775Z,100.00
2022-07-31T07:10:05.476Z,100.00
2022-07-31T07:12:51.065Z,100.00
2022-07-31T07:15:18.196Z,100.00
2022-07-31T07:17:45.131Z,100.00
2022-07-31T07:20:25.996Z,100.00
2022-07-31T07:22:52.728Z,100.00
2022-07-31T07:25:34.489Z,100.00
2022-07-31T07:28:01.521Z,100.00
2022-07-31T07:30:28.823Z,100.00
2022-07-31T07:32:59.739Z,100.00
2022-07-31T07:35:32.024Z,100.00
2022-07-31T07:38:00.982Z,100.00
2022-07-31T07:40:29.402Z,100.00
2022-07-31T07:42:59.950Z,100.00
2022-07-31T07:45:29.768Z,99.73
2022-07-31T07:48:06.868Z,94.30
2022-07-31T07:50:47.799Z,91.41
2022-07-31T07:53:27.635Z,85.65
2022-07-31T07:56:14.928Z,81.61
2022-07-31T07:59:07.497Z,83.52
2022-07-31T08:02:01.134Z,77.57
2022-07-31T08:04:30.794Z,73.05
2022-07-31T08:06:57.979Z,75.61
2022-07-31T08:09:28.569Z,78.17
2022-07-31T08:12:13.883Z,76.58
2022-07-31T08:15:09.849Z,74.16
2022-07-31T08:17:54.456Z,71.75
2022-07-31T08:20:22.149Z,70.33
2022-07-31T08:22:50.097Z,68.25
2022-07-31T08:25:16.896Z,66.04
2022-07-31T08:27:47.856Z,64.01
2022-07-31T08:30:15.769Z,61.64
2022-07-31T08:32:42.691Z,61.74
2022-07-31T08:35:29.965Z,60.80
2022-07-31T08:38:03.878Z,59.14
2022-07-31T08:40:43.155Z,60.02
2022-07-31T08:43:59.599Z,57.90
2022-07-31T08:46:02.616Z,56.68
2022-07-31T08:48:33.362Z,55.07
2022-07-31T08:51:03.633Z,52.30
2022-07-31T08:53:51.045Z,53.73
2022-07-31T08:56:20.382Z,53.29
2022-07-31T08:58:47.116Z,52.53
2022-07-31T09:01:15.081Z,51.12
2022-07-31T09:03:42.236Z,49.79
2022-07-31T09:06:13.483Z,49.05
2022-07-31T09:08:42.561Z,51.56
2022-07-31T09:11:12.064Z,51.07
2022-07-31T09:14:01.767Z,49.40
2022-07-31T09:16:50.127Z,47.97
2022-07-31T09:19:53.710Z,48.59
2022-07-31T09:22:26.910Z,47.60
2022-07-31T09:25:11.949Z,47.27
2022-07-31T09:27:39.691Z,49.35
2022-07-31T09:30:07.460Z,48.81
2022-07-31T09:32:57.388Z,48.99
2022-07-31T09:35:51.999Z,45.83
2022-07-31T09:38:19.868Z,46.48
2022-07-31T09:42:00.218Z,46.75
2022-07-31T09:44:35.888Z,47.13
2022-07-31T09:47:02.974Z,44.85
2022-07-31T09:49:31.804Z,43.89
2022-07-31T09:52:00.592Z,44.06
2022-07-31T09:54:31.258Z,44.39
2022-07-31T09:57:12.859Z,44.07
2022-07-31T09:59:42.886Z,43.92
2022-07-31T10:02:14.064Z,41.83
2022-07-31T10:04:42.955Z,43.06
2022-07-31T10:07:31.510Z,42.11
2022-07-31T10:10:08.332Z,42.36
2022-07-31T10:12:47.888Z,40.53
2022-07-31T10:15:17.631Z,42.01
2022-07-31T10:17:51.560Z,40.16
2022-07-31T10:20:39.667Z,41.86
2022-07-31T10:23:29.005Z,41.19
2022-07-31T10:26:01.330Z,41.80
2022-07-31T10:28:31.940Z,40.99
2022-07-31T10:30:59.011Z,39.43
2022-07-31T10:33:43.758Z,39.61
2022-07-31T10:36:38.036Z,38.93
2022-07-31T10:39:19.788Z,40.47
2022-07-31T10:42:15.523Z,41.12
2022-07-31T10:44:58.695Z,41.02
2022-07-31T10:47:34.109Z,40.26
2022-07-31T10:50:31.525Z,39.58
2022-07-31T10:53:09.606Z,40.15
2022-07-31T10:56:13.559Z,40.68
2022-07-31T10:59:11.130Z,41.57
2022-07-31T11:02:05.627Z,40.53
2022-07-31T11:05:07.016Z,40.29
2022-07-31T11:08:07.829Z,40.69
2022-07-31T11:10:56.074Z,40.19
2022-07-31T11:13:50.684Z,40.31
2022-07-31T11:16:34.750Z,40.96
2022-07-31T11:19:14.877Z,40.66
2022-07-31T11:21:42.222Z,39.80
2022-07-31T11:24:17.427Z,39.82
2022-07-31T11:26:54.537Z,39.66
2022-07-31T11:29:58.838Z,38.15
2022-07-31T11:32:25.408Z,39.34
2022-07-31T11:34:57.143Z,39.14
2022-07-31T11:37:30.620Z,38.50
2022-07-31T11:40:12.846Z,38.71
2022-07-31T11:42:55.885Z,38.15
2022-07-31T11:45:45.543Z,38.61
2022-07-31T11:48:16.073Z,38.83
2022-07-31T11:50:47.169Z,39.10
2022-07-31T11:53:14.396Z,39.80
2022-07-31T11:55:53.137Z,39.68
2022-07-31T11:58:21.561Z,39.94
2022-07-31T12:00:58.891Z,39.35
2022-07-31T12:03:31.661Z,39.72
2022-07-31T12:05:59.032Z,39.62
2022-07-31T12:08:27.759Z,39.20
2022-07-31T12:10:56.997Z,38.31
2022-07-31T12:13:24.642Z,38.80
2022-07-31T12:16:09.359Z,37.49
2022-07-31T12:18:48.122Z,38.40
2022-07-31T12:21:19.691Z,39.60
2022-07-31T12:23:47.845Z,38.87
2022-07-31T12:26:31.936Z,38.70
2022-07-31T12:29:11.082Z,37.84
2022-07-31T12:31:52.429Z,37.75
2022-07-31T12:34:38.777Z,37.26
2022-07-31T12:37:15.506Z,38.07
2022-07-31T12:39:59.441Z,37.77
2022-07-31T12:42:35.321Z,37.68
2022-07-31T12:45:18.094Z,37.41
2022-07-31T12:47:52.063Z,37.40
2022-07-31T12:50:40.535Z,37.39
2022-07-31T12:53:07.233Z,36.06
2022-07-31T12:55:34.215Z,36.02
2022-07-31T12:58:00.990Z,35.93
2022-07-31T13:00:29.014Z,34.82
2022-07-31T13:02:57.494Z,35.75
2022-07-31T13:05:25.412Z,35.58
2022-07-31T13:07:52.958Z,35.50
2022-07-31T13:10:24.007Z,36.19
2022-07-31T13:12:51.914Z,35.87
2022-07-31T13:15:20.019Z,35.21
2022-07-31T13:17:50.576Z,34.56
2022-07-31T13:20:38.898Z,35.32
2022-07-31T13:23:05.704Z,35.00
2022-07-31T13:25:32.687Z,35.50
2022-07-31T13:27:59.807Z,36.39
2022-07-31T13:30:28.239Z,37.01
2022-07-31T13:32:55.727Z,37.55
2022-07-31T13:35:28.514Z,37.68
2022-07-31T13:37:56.517Z,36.32
2022-07-31T13:40:42.578Z,36.82
2022-07-31T13:43:09.816Z,36.72
2022-07-31T13:45:37.091Z,36.64
2022-07-31T13:48:08.965Z,36.47
2022-07-31T13:50:37.457Z,37.27
2022-07-31T13:53:04.663Z,36.84
2022-07-31T13:55:31.932Z,37.54
2022-07-31T13:57:59.843Z,36.87
2022-07-31T14:00:29.570Z,37.37
2022-07-31T14:02:57.009Z,37.66
2022-07-31T14:05:26.713Z,38.51
2022-07-31T14:07:55.491Z,38.36
2022-07-31T14:10:23.600Z,38.63
2022-07-31T14:12:50.604Z,38.54
2022-07-31T14:15:20.186Z,37.79
2022-07-31T14:17:47.141Z,37.06
2022-07-31T14:20:14.124Z,36.95
2022-07-31T14:22:42.155Z,36.54
2022-07-31T14:25:12.233Z,37.17
2022-07-31T14:27:39.703Z,37.00
2022-07-31T14:30:10.005Z,37.24
2022-07-31T14:32:36.769Z,37.03
2022-07-31T14:35:08.167Z,37.04
2022-07-31T14:37:35.709Z,37.05
2022-07-31T14:40:03.628Z,36.49
2022-07-31T14:42:30.482Z,37.33
2022-07-31T14:44:58.727Z,37.57
2022-07-31T14:47:26.085Z,37.99
2022-07-31T14:50:06.582Z,37.47
2022-07-31T14:52:37.031Z,38.01
2022-07-31T14:55:04.009Z,37.60
2022-07-31T14:57:31.484Z,38.41
2022-07-31T14:59:58.524Z,38.46
2022-07-31T15:02:25.584Z,38.27
2022-07-31T15:04:53.269Z,37.08
2022-07-31T15:07:39.478Z,37.38
2022-07-31T15:10:08.801Z,37.64
2022-07-31T15:12:35.662Z,36.67
2022-07-31T15:15:02.439Z,36.15
2022-07-31T15:17:29.355Z,35.79
2022-07-31T15:19:56.142Z,34.90
2022-07-31T15:22:22.969Z,35.21
2022-07-31T15:24:52.540Z,34.73
2022-07-31T15:27:21.778Z,33.85
2022-07-31T15:30:04.799Z,34.40
2022-07-31T15:32:38.705Z,34.39
2022-07-31T15:35:07.935Z,34.45
2022-07-31T15:37:36.957Z,34.11
2022-07-31T15:40:07.033Z,34.39
2022-07-31T15:42:38.326Z,34.42
2022-07-31T15:45:07.473Z,34.30
2022-07-31T15:47:34.347Z,34.75
2022-07-31T15:50:01.176Z,34.15
2022-07-31T15:52:27.891Z,34.06
2022-07-31T15:54:54.699Z,33.95
2022-07-31T15:57:22.488Z,34.38
2022-07-31T15:59:49.960Z,34.59
2022-07-31T16:02:17.715Z,34.42
2022-07-31T16:04:51.939Z,34.37
2022-07-31T16:08:31.722Z,34.38
2022-07-31T16:10:15.241Z,32.95
2022-07-31T16:12:45.576Z,30.01
2022-07-31T16:15:13.147Z,27.33
2022-07-31T16:17:40.399Z,28.54
2022-07-31T16:20:13.291Z,30.90
2022-07-31T16:22:58.060Z,28.26
2022-07-31T16:25:26.003Z,26.56
2022-07-31T16:27:52.931Z,26.40
2022-07-31T16:30:20.436Z,25.82
2022-07-31T16:32:47.716Z,26.13
2022-07-31T16:35:14.623Z,25.86
2022-07-31T16:37:52.687Z,24.71
2022-07-31T16:40:31.032Z,25.12
2022-07-31T16:43:48.147Z,24.85
2022-07-31T16:45:50.822Z,24.50
2022-07-31T16:48:17.843Z,25.16
2022-07-31T16:50:45.833Z,24.41
2022-07-31T16:54:09.862Z,24.52
2022-07-31T16:56:06.565Z,24.42
2022-07-31T16:58:33.344Z,24.87
2022-07-31T17:01:00.433Z,25.36
2022-07-31T17:03:58.984Z,25.03
2022-07-31T17:06:13.855Z,24.78
2022-07-31T17:08:40.699Z,24.59
2022-07-31T17:11:07.438Z,24.36
2022-07-31T17:13:34.085Z,24.10
2022-07-31T17:16:19.588Z,25.27
2022-07-31T17:18:52.367Z,24.65
2022-07-31T17:21:22.928Z,24.62
2022-07-31T17:23:52.782Z,24.44
2022-07-31T17:26:21.087Z,24.53
2022-07-31T17:28:48.855Z,24.00
2022-07-31T17:31:15.583Z,24.25
2022-07-31T17:33:58.345Z,24.17
2022-07-31T17:36:29.156Z,24.54
2022-07-31T17:38:57.127Z,24.58
2022-07-31T17:41:25.190Z,24.28
2022-07-31T17:43:56.392Z,24.18
2022-07-31T17:46:34.570Z,24.92
2022-07-31T17:49:06.098Z,25.33
2022-07-31T17:51:33.284Z,26.20
2022-07-31T17:54:00.588Z,27.88
2022-07-31T17:56:27.547Z,30.36
2022-07-31T17:58:55.559Z,32.03
2022-07-31T18:01:26.971Z,32.50
2022-07-31T18:03:56.063Z,32.89
2022-07-31T18:06:22.921Z,33.25
2022-07-31T18:08:49.742Z,33.89
2022-07-31T18:11:16.522Z,34.39
2022-07-31T18:13:48.658Z,34.35
2022-07-31T18:16:19.119Z,34.76
2022-07-31T18:18:46.505Z,34.68
2022-07-31T18:21:14.106Z,34.99
2022-07-31T18:23:47.277Z,34.95
2022-07-31T18:26:15.020Z,35.72
2022-07-31T18:28:44.181Z,35.97
2022-07-31T18:31:32.035Z,36.37
2022-07-31T18:34:06.456Z,36.35
2022-07-31T18:36:36.191Z,36.56
2022-07-31T18:39:04.509Z,36.95
2022-07-31T18:41:31.601Z,37.34
2022-07-31T18:43:59.550Z,37.26
2022-07-31T18:46:55.895Z,37.76
2022-07-31T18:50:59.709Z,37.83
2022-07-31T18:52:19.914Z,37.78
2022-07-31T18:54:48.569Z,38.14
2022-07-31T18:57:19.175Z,38.55
2022-07-31T18:59:46.566Z,38.22
2022-07-31T19:02:23.192Z,38.16
2022-07-31T19:05:02.129Z,38.49
2022-07-31T19:07:36.010Z,38.81
2022-07-31T19:10:07.813Z,38.94
2022-07-31T19:12:35.419Z,38.84
2022-07-31T19:15:05.341Z,38.91
2022-07-31T19:17:44.364Z,39.31
2022-07-31T19:20:12.614Z,39.62
2022-07-31T19:22:59.303Z,39.87
2022-07-31T19:25:26.113Z,39.90
2022-07-31T19:28:06.252Z,40.49
2022-07-31T19:30:45.443Z,40.72
2022-07-31T19:33:14.109Z,41.05
2022-07-31T19:35:55.143Z,42.23
2022-07-31T19:38:29.705Z,42.17
2022-07-31T19:40:56.716Z,42.84
2022-07-31T19:43:23.951Z,43.28
2022-07-31T19:45:57.704Z,44.64
2022-07-31T19:48:49.569Z,45.13
2022-07-31T19:51:18.557Z,45.34
2022-07-31T19:53:49.575Z,46.01
2022-07-31T19:56:20.699Z,46.22
2022-07-31T19:58:52.157Z,46.63
2022-07-31T20:01:20.356Z,46.81
2022-07-31T20:03:48.701Z,46.95
2022-07-31T20:06:15.842Z,48.59
2022-07-31T20:08:42.670Z,48.59
2022-07-31T20:11:12.104Z,48.75
2022-07-31T20:13:38.997Z,48.58
2022-07-31T20:16:06.454Z,48.98
2022-07-31T20:18:36.084Z,48.57
2022-07-31T20:21:08.976Z,48.60
2022-07-31T20:23:41.739Z,48.22
2022-07-31T20:26:10.789Z,48.28
2022-07-31T20:28:40.148Z,48.22
2022-07-31T20:31:20.152Z,48.28
2022-07-31T20:33:57.094Z,48.00
2022-07-31T20:36:26.170Z,48.02
2022-07-31T20:38:53.014Z,48.32
2022-07-31T20:41:20.087Z,48.15
2022-07-31T20:43:46.913Z,48.11
2022-07-31T20:46:15.692Z,48.22
2022-07-31T20:48:44.459Z,48.57
2022-07-31T20:51:19.135Z,48.82
2022-07-31T20:53:47.810Z,48.48
2022-07-31T20:56:15.681Z,48.51
2022-07-31T20:58:42.755Z,48.52
2022-07-31T21:01:22.000Z,48.78
2022-07-31T21:03:49.200Z,49.18
2022-07-31T21:06:16.489Z,48.93
2022-07-31T21:08:43.245Z,49.27
2022-07-31T21:11:09.926Z,49.26
2022-07-31T21:13:36.822Z,49.56
2022-07-31T21:16:04.067Z,49.68
2022-07-31T21:18:35.782Z,49.89
2022-07-31T21:21:04.443Z,49.79
2022-07-31T21:23:31.621Z,50.16
2022-07-31T21:25:59.059Z,50.28
2022-07-31T21:28:27.636Z,50.32
2022-07-31T21:30:56.226Z,50.60
2022-07-31T21:33:27.188Z,51.41
2022-07-31T21:35:55.457Z,51.34
2022-07-31T21:38:22.835Z,51.69
2022-07-31T21:40:50.438Z,52.02
2022-07-31T21:43:22.102Z,52.40
2022-07-31T21:45:57.919Z,53.14
2022-07-31T21:48:29.772Z,53.36
2022-07-31T21:50:57.207Z,54.38
2022-07-31T21:53:24.550Z,54.82
2022-07-31T21:55:51.763Z,55.44
2022-07-31T21:58:19.169Z,56.06
2022-07-31T22:00:46.193Z,56.61
2022-07-31T22:03:13.002Z,57.74
2022-07-31T22:05:58.657Z,58.03
2022-07-31T22:08:25.466Z,61.79
2022-07-31T22:10:53.033Z,64.05
2022-07-31T22:13:20.647Z,66.75
2022-07-31T22:15:51.349Z,66.93
2022-07-31T22:18:28.207Z,67.73
2022-07-31T22:20:55.053Z,67.52
2022-07-31T22:23:23.176Z,68.47
2022-07-31T22:25:50.005Z,70.17
2022-07-31T22:28:19.629Z,71.07
2022-07-31T22:30:46.833Z,71.85
2022-07-31T22:33:13.798Z,71.90
2022-07-31T22:35:40.934Z,73.14
2022-07-31T22:38:08.585Z,73.79
2022-07-31T22:40:35.679Z,73.42
2022-07-31T22:43:03.423Z,75.58
2022-07-31T22:45:30.555Z,77.02
2022-07-31T22:47:57.978Z,77.01
2022-07-31T22:50:25.374Z,77.25
2022-07-31T22:52:52.751Z,76.84
2022-07-31T22:55:19.692Z,78.86
2022-07-31T22:57:46.457Z,78.50
2022-07-31T23:00:14.908Z,79.35
2022-07-31T23:02:42.807Z,79.74
2022-07-31T23:05:10.390Z,79.70
2022-07-31T23:07:37.792Z,80.74
2022-07-31T23:10:08.468Z,80.93
2022-07-31T23:12:35.166Z,80.78
2022-07-31T23:15:02.142Z,82.27
2022-07-31T23:17:28.882Z,82.54
2022-07-31T23:19:56.182Z,83.69
2022-07-31T23:22:33.878Z,82.86
2022-07-31T23:25:10.148Z,83.42
2022-07-31T23:27:36.851Z,83.99
2022-07-31T23:30:03.952Z,84.55
2022-07-31T23:32:33.476Z,85.80
2022-07-31T23:35:00.226Z,87.75
2022-07-31T23:37:26.973Z,88.26
2022-07-31T23:39:58.725Z,87.78
2022-07-31T23:42:37.674Z,87.69
2022-07-31T23:45:11.556Z,89.09
2022-07-31T23:47:45.939Z,89.07
2022-07-31T23:50:15.071Z,89.15
2022-07-31T23:52:44.991Z,90.75
2022-07-31T23:55:12.255Z,91.48
2022-07-31T23:57:40.134Z,90.42
